createdAt,value
2022-12-19T00:01:36.983Z,43.30
2022-12-19T00:04:08.104Z,48.27
2022-12-19T00:06:35.838Z,48.08
2022-12-19T00:09:02.513Z,43.88
2022-12-19T00:11:30.219Z,47.38
2022-12-19T00:13:57.280Z,40.83
2022-12-19T00:16:26.475Z,39.07
2022-12-19T00:18:55.706Z,40.75
2022-12-19T00:21:24.248Z,44.33
2022-12-19T00:23:51.167Z,42.60
2022-12-19T00:26:17.632Z,43.17
2022-12-19T00:28:46.607Z,42.90
2022-12-19T00:31:14.592Z,35.92
2022-12-19T00:33:43.685Z,48.85
2022-12-19T00:36:12.555Z,45.63
2022-12-19T00:38:39.167Z,37.90
2022-12-19T00:41:10.931Z,45.87
2022-12-19T00:43:38.662Z,44.55
2022-12-19T00:46:08.829Z,44.38
2022-12-19T00:48:35.691Z,46.50
2022-12-19T00:51:16.955Z,48.15
2022-12-19T00:53:45.304Z,49.00
2022-12-19T00:56:14.750Z,38.55
2022-12-19T00:58:46.588Z,46.55
2022-12-19T01:01:28.415Z,45.92
2022-12-19T01:06:41.465Z,39.57
2022-12-19T01:09:09.557Z,50.88
2022-12-19T01:11:54.462Z,54.33
2022-12-19T01:14:23.037Z,48.20
2022-12-19T01:16:50.564Z,44.17
2022-12-19T01:19:17.333Z,46.93
2022-12-19T01:21:43.795Z,47.85
2022-12-19T01:24:10.701Z,42.70
2022-12-19T01:26:37.472Z,44.05
2022-12-19T01:29:04.723Z,43.03
2022-12-19T01:31:31.231Z,45.67
2022-12-19T01:34:00.030Z,48.03
2022-12-19T01:36:28.133Z,46.25
2022-12-19T01:38:58.243Z,47.83
2022-12-19T01:41:24.876Z,47.08
2022-12-19T01:43:58.666Z,44.03
2022-12-19T01:46:29.949Z,48.60
2022-12-19T01:48:57.066Z,47.20
2022-12-19T01:51:29.348Z,48.03
2022-12-19T01:54:01.948Z,49.05
2022-12-19T01:56:33.122Z,46.50
2022-12-19T01:59:05.764Z,44.22
2022-12-19T02:01:34.644Z,55.03
2022-12-19T02:04:02.725Z,42.28
2022-12-19T02:06:31.286Z,46.95
2022-12-19T02:08:58.167Z,45.57
2022-12-19T02:11:24.569Z,46.83
2022-12-19T02:13:52.534Z,45.83
2022-12-19T02:16:21.614Z,51.08
2022-12-19T02:18:51.736Z,40.95
2022-12-19T02:21:46.619Z,50.37
2022-12-19T02:24:22.475Z,40.50
2022-12-19T02:27:04.066Z,41.90
2022-12-19T02:29:54.767Z,38.75
2022-12-19T02:32:41.303Z,46.30
2022-12-19T02:35:34.165Z,43.77
2022-12-19T02:38:29.001Z,38.13
2022-12-19T02:41:01.613Z,51.20
2022-12-19T02:43:32.199Z,41.75
2022-12-19T02:46:01.458Z,51.65
2022-12-19T02:48:29.213Z,48.53
2022-12-19T02:50:55.637Z,51.25
2022-12-19T02:53:23.989Z,51.60
2022-12-19T02:56:03.968Z,51.33
2022-12-19T02:58:40.267Z,47.00
2022-12-19T03:01:08.005Z,43.27
2022-12-19T03:04:02.431Z,53.33
2022-12-19T03:06:40.600Z,48.08
2022-12-19T03:09:30.180Z,44.70
2022-12-19T03:12:05.220Z,49.70
2022-12-19T03:14:32.939Z,51.47
2022-12-19T03:17:04.595Z,43.55
2022-12-19T03:19:32.102Z,39.50
2022-12-19T03:21:58.913Z,48.35
2022-12-19T03:24:26.077Z,47.15
2022-12-19T03:27:03.192Z,45.67
2022-12-19T03:29:34.380Z,45.53
2022-12-19T03:32:05.448Z,45.63
2022-12-19T03:34:39.186Z,47.97
2022-12-19T03:37:11.312Z,40.03
2022-12-19T03:39:41.001Z,40.47
2022-12-19T03:42:27.085Z,46.38
2022-12-19T03:44:55.567Z,43.45
2022-12-19T03:47:32.900Z,45.90
2022-12-19T03:49:59.546Z,47.38
2022-12-19T03:52:33.920Z,43.17
2022-12-19T03:55:03.289Z,49.60
2022-12-19T03:57:35.973Z,47.03
2022-12-19T04:00:08.006Z,45.28
2022-12-19T04:02:37.569Z,53.88
2022-12-19T04:05:13.376Z,43.33
2022-12-19T04:07:41.055Z,49.88
2022-12-19T04:10:15.569Z,46.65
2022-12-19T04:12:48.803Z,46.08
2022-12-19T04:15:16.326Z,46.88
2022-12-19T04:17:51.728Z,43.20
2022-12-19T04:20:21.080Z,41.58
2022-12-19T04:22:59.671Z,40.47
2022-12-19T04:25:30.551Z,43.13
2022-12-19T04:28:05.298Z,44.10
2022-12-19T04:30:36.789Z,45.63
2022-12-19T04:33:03.661Z,40.65
2022-12-19T04:35:30.185Z,48.33
2022-12-19T04:37:56.542Z,40.22
2022-12-19T04:40:23.032Z,41.63
2022-12-19T04:42:49.415Z,48.37
2022-12-19T04:45:16.678Z,43.20
2022-12-19T04:47:43.348Z,45.00
2022-12-19T04:50:10.204Z,43.35
2022-12-19T04:52:36.760Z,50.13
2022-12-19T04:55:03.340Z,43.57
2022-12-19T04:57:31.167Z,45.20
2022-12-19T04:59:58.143Z,47.83
2022-12-19T05:02:25.614Z,48.85
2022-12-19T05:04:52.187Z,46.72
2022-12-19T05:07:18.571Z,49.77
2022-12-19T05:09:44.974Z,49.15
2022-12-19T05:12:11.419Z,44.80
2022-12-19T05:14:38.173Z,53.17
2022-12-19T05:17:04.705Z,53.88
2022-12-19T05:19:31.303Z,46.93
2022-12-19T05:21:58.112Z,47.42
2022-12-19T05:24:24.615Z,43.10
2022-12-19T05:26:51.003Z,46.85
2022-12-19T05:29:17.616Z,46.17
2022-12-19T05:31:44.085Z,48.30
2022-12-19T05:34:10.579Z,50.78
2022-12-19T05:36:37.079Z,43.55
2022-12-19T05:39:03.540Z,46.17
2022-12-19T05:41:30.029Z,45.88
2022-12-19T05:43:56.683Z,33.70
2022-12-19T05:46:25.074Z,39.78
2022-12-19T05:48:51.748Z,43.03
2022-12-19T05:51:18.564Z,46.20
2022-12-19T05:53:45.032Z,43.10
2022-12-19T05:56:14.756Z,44.40
2022-12-19T05:58:43.376Z,41.50
2022-12-19T06:01:16.854Z,44.60
2022-12-19T06:03:44.116Z,47.50
2022-12-19T06:06:13.690Z,42.80
2022-12-19T06:08:40.464Z,45.13
2022-12-19T06:11:08.576Z,37.05
2022-12-19T06:13:35.951Z,45.85
2022-12-19T06:16:05.548Z,42.63
2022-12-19T06:18:32.346Z,47.35
2022-12-19T06:21:04.711Z,42.37
2022-12-19T06:23:33.016Z,39.83
2022-12-19T06:26:00.738Z,49.40
2022-12-19T06:28:29.526Z,53.05
2022-12-19T06:30:57.291Z,49.85
2022-12-19T06:33:24.077Z,35.50
2022-12-19T06:36:00.626Z,50.67
2022-12-19T06:38:28.931Z,50.35
2022-12-19T06:41:14.526Z,49.65
2022-12-19T06:43:41.066Z,43.25
2022-12-19T06:46:08.067Z,43.57
2022-12-19T06:48:34.589Z,47.88
2022-12-19T06:51:01.318Z,44.50
2022-12-19T06:53:28.143Z,47.08
2022-12-19T06:55:57.347Z,45.60
2022-12-19T06:58:24.496Z,50.90
2022-12-19T07:00:51.943Z,47.45
2022-12-19T07:03:24.245Z,43.45
2022-12-19T07:05:50.807Z,36.28
2022-12-19T07:08:17.427Z,45.40
2022-12-19T07:10:43.905Z,44.90
2022-12-19T07:13:10.417Z,42.55
2022-12-19T07:15:37.733Z,44.13
2022-12-19T07:18:06.478Z,41.15
2022-12-19T07:20:38.710Z,43.03
2022-12-19T07:23:09.728Z,45.40
2022-12-19T07:25:39.050Z,42.75
2022-12-19T07:28:06.971Z,43.80
2022-12-19T07:30:33.435Z,38.00
2022-12-19T07:32:59.901Z,88.38
2022-12-19T07:35:26.449Z,39.57
2022-12-19T07:37:52.805Z,73.07
2022-12-19T07:40:19.486Z,42.20
2022-12-19T07:42:45.962Z,38.95
2022-12-19T07:45:12.654Z,42.38
2022-12-19T07:47:39.148Z,36.37
2022-12-19T07:50:05.896Z,38.78
2022-12-19T07:52:32.407Z,40.53
2022-12-19T07:54:58.782Z,41.10
2022-12-19T07:57:25.191Z,42.92
2022-12-19T07:59:51.643Z,39.57
2022-12-19T08:02:18.312Z,39.58
2022-12-19T08:04:45.036Z,40.47
2022-12-19T08:07:11.498Z,43.33
2022-12-19T08:09:38.218Z,42.97
2022-12-19T08:12:04.715Z,44.23
2022-12-19T08:14:31.162Z,40.22
2022-12-19T08:19:44.080Z,37.20
2022-12-19T08:22:10.584Z,32.13
2022-12-19T08:24:37.462Z,42.20
2022-12-19T08:27:04.064Z,35.65
2022-12-19T08:29:30.525Z,42.92
2022-12-19T08:31:56.902Z,38.30
2022-12-19T08:34:23.376Z,44.83
2022-12-19T08:36:50.087Z,39.70
2022-12-19T08:39:16.634Z,36.30
2022-12-19T08:41:43.823Z,44.00
2022-12-19T08:44:11.418Z,41.63
2022-12-19T08:46:37.903Z,49.00
2022-12-19T08:49:04.437Z,39.57
2022-12-19T08:51:31.035Z,37.60
2022-12-19T08:53:58.128Z,42.20
2022-12-19T08:56:24.620Z,43.63
2022-12-19T08:58:52.111Z,43.53
2022-12-19T09:01:20.793Z,34.77
2022-12-19T09:04:07.273Z,49.50
2022-12-19T09:06:34.766Z,42.50
2022-12-19T09:09:01.306Z,44.80
2022-12-19T09:11:27.830Z,44.05
2022-12-19T09:13:57.408Z,45.73
2022-12-19T09:16:26.458Z,43.10
2022-12-19T09:18:56.928Z,46.33
2022-12-19T09:21:25.140Z,41.03
2022-12-19T09:24:00.561Z,42.92
2022-12-19T09:26:32.968Z,44.40
2022-12-19T09:29:00.859Z,42.33
2022-12-19T09:31:29.172Z,39.75
2022-12-19T09:33:55.617Z,42.33
2022-12-19T09:36:24.544Z,40.85
2022-12-19T09:38:54.432Z,42.43
2022-12-19T09:41:54.545Z,45.95
2022-12-19T09:44:45.605Z,36.00
2022-12-19T09:47:16.047Z,42.67
2022-12-19T09:49:45.196Z,52.35
2022-12-19T09:52:20.640Z,50.87
2022-12-19T09:54:56.187Z,48.28
2022-12-19T09:57:40.881Z,44.78
2022-12-19T10:00:18.343Z,44.38
2022-12-19T10:03:03.145Z,43.78
2022-12-19T10:06:37.189Z,45.80
2022-12-19T10:08:32.227Z,46.72
2022-12-19T10:12:47.857Z,44.10
2022-12-19T10:14:11.704Z,41.13
2022-12-19T10:17:24.645Z,44.22
2022-12-19T10:20:16.231Z,46.03
2022-12-19T10:23:07.043Z,45.97
2022-12-19T10:26:06.179Z,43.55
2022-12-19T10:28:35.231Z,45.38
2022-12-19T10:31:21.611Z,47.40
2022-12-19T10:34:22.359Z,40.87
2022-12-19T10:37:26.944Z,45.25
2022-12-19T10:39:47.295Z,48.08
2022-12-19T10:42:34.335Z,45.95
2022-12-19T10:45:06.259Z,49.42
2022-12-19T10:47:33.084Z,47.30
2022-12-19T10:50:04.005Z,46.78
2022-12-19T10:53:04.511Z,44.60
2022-12-19T10:55:51.605Z,40.40
2022-12-19T10:58:23.009Z,44.38
2022-12-19T11:00:58.244Z,44.00
2022-12-19T11:03:25.045Z,40.13
2022-12-19T11:05:58.835Z,87.80
2022-12-19T11:08:26.989Z,103.70
2022-12-19T11:13:07.745Z,54.08
2022-12-19T11:19:33.470Z,48.30
2022-12-19T11:20:44.503Z,46.67
2022-12-19T11:29:18.794Z,61.40
2022-12-19T11:29:30.653Z,47.53
2022-12-19T11:30:07.051Z,45.00
2022-12-19T11:30:36.953Z,44.97
2022-12-19T11:34:07.128Z,45.42
2022-12-19T11:36:43.460Z,43.80
2022-12-19T11:39:22.894Z,56.80
2022-12-19T11:42:29.161Z,45.40
2022-12-19T11:45:02.841Z,41.15
2022-12-19T11:47:48.495Z,40.88
2022-12-19T11:50:19.416Z,43.58
2022-12-19T11:53:19.941Z,44.03
2022-12-19T11:56:08.067Z,43.70
2022-12-19T11:58:49.430Z,42.20
2022-12-19T12:01:34.631Z,45.30
2022-12-19T12:04:15.942Z,41.70
2022-12-19T12:06:53.266Z,40.90
2022-12-19T12:13:17.277Z,41.10
2022-12-19T12:19:55.071Z,41.70
2022-12-19T12:25:01.431Z,41.45
2022-12-19T12:29:01.537Z,41.58
2022-12-19T12:31:14.804Z,34.97
2022-12-19T12:31:39.472Z,38.22
2022-12-19T12:31:43.273Z,46.47
2022-12-19T12:35:51.823Z,44.50
2022-12-19T12:40:53.206Z,37.60
2022-12-19T12:43:40.619Z,37.03
2022-12-19T12:46:14.782Z,36.50
2022-12-19T12:48:54.247Z,41.03
2022-12-19T12:51:22.239Z,41.10
2022-12-19T12:53:49.775Z,38.67
2022-12-19T12:56:18.459Z,39.83
2022-12-19T12:58:54.100Z,37.45
2022-12-19T13:01:29.961Z,38.80
2022-12-19T13:04:02.243Z,37.22
2022-12-19T13:06:40.733Z,35.57
2022-12-19T13:09:09.875Z,34.13
2022-12-19T13:11:56.421Z,33.15
2022-12-19T13:14:34.859Z,28.85
2022-12-19T13:17:06.131Z,34.80
2022-12-19T13:19:51.838Z,41.33
2022-12-19T13:22:21.330Z,34.33
2022-12-19T13:24:51.113Z,40.25
2022-12-19T13:27:20.723Z,36.13
2022-12-19T13:30:07.936Z,42.60
2022-12-19T13:32:40.095Z,31.77
2022-12-19T13:36:31.057Z,40.28
2022-12-19T13:39:58.210Z,39.60
2022-12-19T13:41:49.494Z,35.83
2022-12-19T13:44:21.879Z,35.20
2022-12-19T13:46:49.624Z,36.37
2022-12-19T13:49:31.844Z,37.50
2022-12-19T13:52:02.868Z,36.60
2022-12-19T13:54:34.592Z,37.03
2022-12-19T13:57:06.602Z,37.50
2022-12-19T13:59:38.557Z,38.90
2022-12-19T14:02:17.976Z,33.67
2022-12-19T14:04:45.519Z,37.85
2022-12-19T14:07:36.476Z,33.35
2022-12-19T14:11:39.332Z,35.38
2022-12-19T14:13:49.227Z,62.93
2022-12-19T14:16:18.297Z,49.03
2022-12-19T14:18:56.085Z,40.97
2022-12-19T14:22:05.173Z,48.42
2022-12-19T14:24:22.245Z,49.55
2022-12-19T14:28:23.894Z,43.53
2022-12-19T14:30:27.900Z,42.38
2022-12-19T14:33:46.388Z,39.08
2022-12-19T14:36:10.439Z,36.17
2022-12-19T14:39:23.785Z,39.15
2022-12-19T14:41:46.147Z,41.67
2022-12-19T14:52:50.879Z,38.35
2022-12-19T14:54:11.033Z,41.97
2022-12-19T14:54:22.848Z,43.80
2022-12-19T14:54:34.136Z,43.83
2022-12-19T14:56:47.483Z,41.30
2022-12-19T14:59:00.380Z,41.55
2022-12-19T15:01:30.684Z,50.30
2022-12-19T15:04:48.410Z,49.00
2022-12-19T15:07:07.491Z,49.25
2022-12-19T15:11:09.292Z,47.30
2022-12-19T15:14:47.194Z,53.50
2022-12-19T15:16:04.604Z,46.92
2022-12-19T15:18:34.222Z,48.78
2022-12-19T15:21:08.109Z,50.45
2022-12-19T15:23:34.555Z,48.43
2022-12-19T15:26:06.045Z,43.85
2022-12-19T15:28:40.250Z,52.08
2022-12-19T15:31:27.927Z,50.78
2022-12-19T15:36:41.096Z,60.43
2022-12-19T15:39:07.501Z,49.25
2022-12-19T15:41:34.315Z,50.33
2022-12-19T15:44:09.976Z,51.90
2022-12-19T15:46:38.909Z,60.28
2022-12-19T15:49:17.438Z,52.43
2022-12-19T15:51:44.280Z,54.08
2022-12-19T15:54:46.542Z,46.75
2022-12-19T15:56:57.405Z,48.38
2022-12-19T15:59:29.866Z,53.30
2022-12-19T16:02:01.974Z,49.90
2022-12-19T16:04:28.812Z,52.38
2022-12-19T16:06:55.426Z,53.35
2022-12-19T16:09:27.787Z,55.78
2022-12-19T16:11:54.862Z,65.50
2022-12-19T16:14:22.481Z,56.67
2022-12-19T16:16:57.799Z,55.72
2022-12-19T16:19:25.814Z,50.88
2022-12-19T16:21:52.864Z,52.17
2022-12-19T16:24:20.098Z,55.47
2022-12-19T16:26:57.747Z,49.67
2022-12-19T16:29:27.925Z,53.58
2022-12-19T16:31:55.364Z,66.88
2022-12-19T16:34:24.378Z,52.22
2022-12-19T16:36:51.245Z,48.33
2022-12-19T16:39:18.201Z,51.73
2022-12-19T16:41:45.568Z,81.03
2022-12-19T16:44:20.367Z,55.33
2022-12-19T16:46:51.128Z,50.03
2022-12-19T16:49:20.582Z,48.97
2022-12-19T16:51:47.728Z,73.77
2022-12-19T16:54:15.517Z,52.15
2022-12-19T16:56:48.813Z,55.10
2022-12-19T16:59:30.043Z,49.80
2022-12-19T17:01:57.661Z,51.47
2022-12-19T17:04:25.652Z,60.90
2022-12-19T17:06:53.627Z,50.80
2022-12-19T17:09:23.112Z,59.15
2022-12-19T17:12:01.255Z,44.63
2022-12-19T17:14:31.949Z,42.13
2022-12-19T17:16:59.343Z,54.57
2022-12-19T17:19:38.433Z,51.08
2022-12-19T17:22:15.882Z,56.33
2022-12-19T17:24:45.037Z,59.20
2022-12-19T17:27:11.476Z,88.47
2022-12-19T17:29:37.997Z,52.70
2022-12-19T17:32:06.847Z,51.75
2022-12-19T17:34:33.979Z,51.55
2022-12-19T17:37:02.698Z,54.58
2022-12-19T17:39:32.009Z,47.40
2022-12-19T17:42:21.732Z,47.80
2022-12-19T17:44:48.167Z,47.67
2022-12-19T17:47:15.843Z,47.05
2022-12-19T17:49:42.843Z,45.03
2022-12-19T17:52:15.609Z,60.42
2022-12-19T17:54:42.488Z,65.90
2022-12-19T17:57:15.823Z,60.83
2022-12-19T17:59:42.401Z,49.45
2022-12-19T18:07:56.474Z,52.47
2022-12-19T18:10:26.466Z,61.50
2022-12-19T18:12:53.752Z,57.25
2022-12-19T18:15:22.240Z,50.10
2022-12-19T18:17:50.316Z,33.75
2022-12-19T18:20:32.257Z,31.77
2022-12-19T18:23:00.046Z,28.17
2022-12-19T18:25:29.160Z,23.73
2022-12-19T18:27:55.638Z,25.98
2022-12-19T18:30:23.806Z,22.42
2022-12-19T18:32:55.289Z,25.17
2022-12-19T18:35:40.464Z,19.33
2022-12-19T18:38:12.438Z,19.63
2022-12-19T18:40:39.249Z,21.50
2022-12-19T18:43:06.002Z,22.38
2022-12-19T18:45:38.783Z,20.63
2022-12-19T18:48:15.540Z,19.27
2022-12-19T18:50:42.045Z,22.73
2022-12-19T18:53:12.281Z,21.08
2022-12-19T18:55:39.024Z,22.48
2022-12-19T18:58:05.644Z,21.60
2022-12-19T19:00:32.511Z,18.58
2022-12-19T19:03:02.459Z,27.65
2022-12-19T19:05:32.097Z,23.75
2022-12-19T19:08:12.054Z,24.70
2022-12-19T19:10:38.787Z,26.00
2022-12-19T19:13:10.016Z,27.05
2022-12-19T19:15:46.646Z,26.17
2022-12-19T19:18:13.753Z,25.90
2022-12-19T19:20:41.816Z,25.92
2022-12-19T19:23:11.248Z,32.47
2022-12-19T19:25:37.959Z,29.10
2022-12-19T19:28:06.448Z,26.52
2022-12-19T19:30:35.908Z,25.73
2022-12-19T19:33:10.904Z,24.50
2022-12-19T19:35:38.092Z,24.37
2022-12-19T19:38:07.032Z,28.05
2022-12-19T19:40:35.239Z,25.20
2022-12-19T19:43:01.914Z,29.92
2022-12-19T19:45:28.435Z,25.25
2022-12-19T19:47:55.463Z,26.67
2022-12-19T19:50:22.458Z,23.08
2022-12-19T19:52:48.917Z,22.38
2022-12-19T19:55:16.015Z,25.30
2022-12-19T19:57:42.508Z,23.63
2022-12-19T20:00:09.678Z,24.93
2022-12-19T20:02:37.231Z,20.55
2022-12-19T20:05:04.137Z,23.15
2022-12-19T20:07:30.783Z,23.92
2022-12-19T20:09:57.269Z,20.38
2022-12-19T20:12:24.261Z,23.83
2022-12-19T20:14:50.796Z,20.85
2022-12-19T20:17:17.458Z,24.02
2022-12-19T20:19:43.945Z,24.38
2022-12-19T20:22:10.467Z,22.33
2022-12-19T20:24:36.887Z,21.87
2022-12-19T20:27:03.432Z,19.60
2022-12-19T20:29:30.510Z,23.83
2022-12-19T20:31:57.065Z,21.88
2022-12-19T20:34:23.905Z,20.60
2022-12-19T20:36:50.389Z,23.80
2022-12-19T20:39:21.929Z,21.10
2022-12-19T20:41:52.806Z,22.40
2022-12-19T20:44:24.125Z,21.00
2022-12-19T20:46:51.059Z,22.75
2022-12-19T20:49:18.595Z,22.53
2022-12-19T20:51:47.549Z,22.23
2022-12-19T20:54:15.663Z,23.25
2022-12-19T20:56:42.129Z,22.38
2022-12-19T20:59:09.596Z,24.05
2022-12-19T21:01:36.251Z,23.47
2022-12-19T21:04:08.682Z,20.80
2022-12-19T21:06:37.809Z,24.05
2022-12-19T21:09:06.038Z,20.92
2022-12-19T21:11:33.571Z,25.50
2022-12-19T21:14:00.109Z,24.57
2022-12-19T21:16:26.603Z,23.38
2022-12-19T21:18:53.398Z,22.85
2022-12-19T21:21:24.903Z,22.90
2022-12-19T21:23:52.648Z,19.55
2022-12-19T21:26:19.881Z,20.17
2022-12-19T21:28:46.380Z,19.52
2022-12-19T21:31:17.096Z,21.15
2022-12-19T21:33:44.321Z,23.85
2022-12-19T21:36:17.683Z,19.60
2022-12-19T21:38:45.275Z,16.87
2022-12-19T21:41:12.897Z,19.75
2022-12-19T21:43:39.314Z,18.60
2022-12-19T21:46:10.554Z,20.20
2022-12-19T21:48:50.603Z,21.52
2022-12-19T21:51:19.625Z,19.37
2022-12-19T21:53:46.506Z,21.50
2022-12-19T21:56:25.034Z,19.60
2022-12-19T21:58:57.157Z,19.15
2022-12-19T22:01:24.221Z,18.95
2022-12-19T22:03:51.547Z,18.23
2022-12-19T22:06:27.391Z,18.42
2022-12-19T22:08:55.118Z,18.85
2022-12-19T22:11:21.997Z,21.13
2022-12-19T22:13:49.478Z,20.42
2022-12-19T22:16:16.581Z,16.93
2022-12-19T22:18:43.864Z,18.35
2022-12-19T22:21:15.056Z,21.17
2022-12-19T22:23:42.297Z,16.50
2022-12-19T22:26:21.156Z,19.10
2022-12-19T22:28:50.037Z,15.87
2022-12-19T22:31:27.967Z,18.60
2022-12-19T22:33:57.400Z,15.73
2022-12-19T22:36:28.404Z,20.20
2022-12-19T22:38:56.583Z,20.30
2022-12-19T22:41:23.166Z,21.07
2022-12-19T22:43:50.248Z,20.55
2022-12-19T22:46:24.185Z,22.20
2022-12-19T22:48:55.153Z,22.42
2022-12-19T22:51:21.595Z,24.30
2022-12-19T22:53:48.210Z,20.47
2022-12-19T22:56:26.816Z,23.45
2022-12-19T22:58:55.315Z,25.33
2022-12-19T23:01:25.032Z,20.85
2022-12-19T23:03:54.057Z,20.80
2022-12-19T23:06:22.020Z,21.80
2022-12-19T23:08:49.026Z,21.38
2022-12-19T23:11:19.021Z,23.05
2022-12-19T23:13:47.219Z,25.60
2022-12-19T23:16:13.761Z,29.33
2022-12-19T23:18:41.234Z,23.20
2022-12-19T23:21:16.387Z,24.98
2022-12-19T23:23:44.912Z,24.33
2022-12-19T23:26:22.604Z,24.73
2022-12-19T23:29:00.961Z,24.23
2022-12-19T23:31:28.416Z,25.07
2022-12-19T23:33:55.801Z,23.80
2022-12-19T23:36:45.138Z,24.33
2022-12-19T23:39:10.862Z,26.02
2022-12-19T23:41:38.007Z,24.63
2022-12-19T23:44:04.719Z,26.50
2022-12-19T23:46:31.276Z,31.40
2022-12-19T23:48:57.903Z,26.48
2022-12-19T23:51:26.821Z,28.15
2022-12-19T23:53:55.058Z,25.88
2022-12-19T23:56:29.184Z,35.20
2022-12-19T23:58:56.526Z,27.45
